createdAt,value
2017-06-24T00:02:16.950Z,27.00
2017-06-24T00:04:44.443Z,27.73
2017-06-24T00:07:11.937Z,28.23
2017-06-24T00:09:39.419Z,22.83
2017-06-24T00:12:06.929Z,25.30
2017-06-24T00:14:34.806Z,22.97
2017-06-24T00:17:02.299Z,25.57
2017-06-24T00:19:30.080Z,23.97
2017-06-24T00:21:57.565Z,22.87
2017-06-24T00:24:25.440Z,20.57
2017-06-24T00:26:53.443Z,22.10
2017-06-24T00:29:20.924Z,25.67
2017-06-24T00:31:48.407Z,26.37
2017-06-24T00:34:16.267Z,25.53
2017-06-24T00:36:44.144Z,23.23
2017-06-24T00:39:11.647Z,19.30
2017-06-24T00:41:39.452Z,20.00
2017-06-24T00:44:07.328Z,22.73
2017-06-24T00:46:34.827Z,25.03
2017-06-24T00:49:02.435Z,21.83
2017-06-24T00:51:29.923Z,20.70
2017-06-24T00:53:57.399Z,20.93
2017-06-24T00:56:24.907Z,21.70
2017-06-24T00:58:52.788Z,24.23
2017-06-24T01:01:20.268Z,25.60
2017-06-24T01:03:48.084Z,18.57
2017-06-24T01:06:15.583Z,26.63
2017-06-24T01:08:43.064Z,24.60
2017-06-24T01:11:10.715Z,24.70
2017-06-24T01:13:38.210Z,30.67
2017-06-24T01:16:06.083Z,25.70
2017-06-24T01:18:33.995Z,21.43
2017-06-24T01:21:01.496Z,23.00
2017-06-24T01:23:29.011Z,27.00
2017-06-24T01:25:56.532Z,21.43
2017-06-24T01:28:25.178Z,23.83
2017-06-24T01:30:52.657Z,24.90
2017-06-24T01:33:20.405Z,24.23
2017-06-24T01:35:48.270Z,23.00
2017-06-24T01:38:16.140Z,23.00
2017-06-24T01:40:44.316Z,23.37
2017-06-24T01:43:12.176Z,24.80
2017-06-24T01:45:40.042Z,25.43
2017-06-24T01:48:07.917Z,22.33
2017-06-24T01:50:35.781Z,25.60
2017-06-24T01:53:03.269Z,29.30
2017-06-24T01:55:30.762Z,22.33
2017-06-24T01:57:58.230Z,26.50
2017-06-24T02:00:25.696Z,24.43
2017-06-24T02:02:53.578Z,27.17
2017-06-24T02:05:21.065Z,26.00
2017-06-24T02:07:48.544Z,25.20
2017-06-24T02:10:16.329Z,33.07
2017-06-24T02:12:44.188Z,27.03
2017-06-24T02:15:11.657Z,27.17
2017-06-24T02:17:39.912Z,29.03
2017-06-24T02:20:07.377Z,30.97
2017-06-24T02:22:35.240Z,32.67
2017-06-24T02:25:03.126Z,31.70
2017-06-24T02:27:30.985Z,30.87
2017-06-24T02:29:58.848Z,32.93
2017-06-24T02:32:26.827Z,26.77
2017-06-24T02:34:54.299Z,33.30
2017-06-24T02:37:21.770Z,32.87
2017-06-24T02:39:49.510Z,28.53
2017-06-24T02:42:16.984Z,26.60
2017-06-24T02:44:44.452Z,31.40
2017-06-24T02:47:11.949Z,30.60
2017-06-24T02:49:39.812Z,28.20
2017-06-24T02:52:07.677Z,29.23
2017-06-24T02:54:35.558Z,33.20
2017-06-24T02:57:03.033Z,34.93
2017-06-24T02:59:30.516Z,31.77
2017-06-24T03:01:58.001Z,28.30
2017-06-24T03:04:25.460Z,27.90
2017-06-24T03:06:53.337Z,30.47
2017-06-24T03:09:21.241Z,32.03
2017-06-24T03:11:48.705Z,36.03
2017-06-24T03:14:16.194Z,37.23
2017-06-24T03:16:43.696Z,36.17
2017-06-24T03:19:11.163Z,30.10
2017-06-24T03:21:38.636Z,32.73
2017-06-24T03:24:06.324Z,30.13
2017-06-24T03:26:34.203Z,33.97
2017-06-24T03:29:01.680Z,35.37
2017-06-24T03:31:29.270Z,37.17
2017-06-24T03:33:56.736Z,41.30
2017-06-24T03:36:24.206Z,34.30
2017-06-24T03:38:51.876Z,40.27
2017-06-24T03:41:19.342Z,40.33
2017-06-24T03:43:47.205Z,41.13
2017-06-24T03:46:15.098Z,35.80
2017-06-24T03:48:42.564Z,38.43
2017-06-24T03:51:10.033Z,43.33
2017-06-24T03:53:37.775Z,42.07
2017-06-24T03:56:05.257Z,42.07
2017-06-24T03:58:32.721Z,39.10
2017-06-24T04:01:00.406Z,37.53
2017-06-24T04:03:28.268Z,39.23
2017-06-24T04:05:56.134Z,37.13
2017-06-24T04:08:23.627Z,38.90
2017-06-24T04:10:51.088Z,33.00
2017-06-24T04:13:18.553Z,36.57
2017-06-24T04:15:46.033Z,34.40
2017-06-24T04:18:13.508Z,38.13
2017-06-24T04:20:40.976Z,39.50
2017-06-24T04:23:08.882Z,30.17
2017-06-24T04:25:36.354Z,38.23
2017-06-24T04:28:03.818Z,36.87
2017-06-24T04:30:31.350Z,29.27
2017-06-24T04:32:58.807Z,32.90
2017-06-24T04:35:26.272Z,31.37
2017-06-24T04:37:53.774Z,33.73
2017-06-24T04:40:21.269Z,33.70
2017-06-24T04:42:48.927Z,35.60
2017-06-24T04:45:16.740Z,34.20
2017-06-24T04:47:44.613Z,33.03
2017-06-24T04:50:12.493Z,41.30
2017-06-24T04:52:40.390Z,38.30
2017-06-24T04:55:07.855Z,41.63
2017-06-24T04:57:35.325Z,41.20
2017-06-24T05:00:02.825Z,42.03
2017-06-24T05:02:31.024Z,43.33
2017-06-24T05:04:58.488Z,49.27
2017-06-24T05:07:27.121Z,50.13
2017-06-24T05:09:54.593Z,58.87
2017-06-24T05:12:22.462Z,52.87
2017-06-24T05:14:49.974Z,58.77
2017-06-24T05:17:17.436Z,50.20
2017-06-24T05:19:44.906Z,47.53
2017-06-24T05:22:13.078Z,60.43
2017-06-24T05:24:40.545Z,47.47
2017-06-24T05:27:08.404Z,56.53
2017-06-24T05:29:36.622Z,49.23
2017-06-24T05:32:04.080Z,51.00
2017-06-24T05:34:31.562Z,49.33
2017-06-24T05:36:59.250Z,45.57
2017-06-24T05:39:27.114Z,42.50
2017-06-24T05:41:54.977Z,54.37
2017-06-24T05:44:22.880Z,44.73
2017-06-24T05:46:50.358Z,44.63
2017-06-24T05:49:17.829Z,45.13
2017-06-24T05:51:45.334Z,43.70
2017-06-24T05:54:12.797Z,45.27
2017-06-24T05:56:40.269Z,44.23
2017-06-24T05:59:08.744Z,43.17
2017-06-24T06:01:37.150Z,38.00
2017-06-24T06:04:04.625Z,36.47
2017-06-24T06:06:32.108Z,37.47
2017-06-24T06:08:59.582Z,40.13
2017-06-24T06:11:27.057Z,38.00
2017-06-24T06:13:54.561Z,37.63
2017-06-24T06:16:22.426Z,35.20
2017-06-24T06:18:49.912Z,36.33
2017-06-24T06:21:17.732Z,30.97
2017-06-24T06:23:45.200Z,32.07
2017-06-24T06:26:12.690Z,31.30
2017-06-24T06:28:40.185Z,33.77
2017-06-24T06:31:08.064Z,30.87
2017-06-24T06:33:35.536Z,33.30
2017-06-24T06:36:03.403Z,29.17
2017-06-24T06:38:31.248Z,33.57
2017-06-24T06:40:58.722Z,32.07
2017-06-24T06:43:26.586Z,31.33
2017-06-24T06:45:54.096Z,35.60
2017-06-24T06:48:21.565Z,29.47
2017-06-24T06:50:49.032Z,27.70
2017-06-24T06:53:17.541Z,30.63
2017-06-24T06:55:45.017Z,29.57
2017-06-24T06:58:12.505Z,29.73
2017-06-24T07:00:40.010Z,27.80
2017-06-24T07:03:07.472Z,30.37
2017-06-24T07:05:34.953Z,28.23
2017-06-24T07:08:02.645Z,27.17
2017-06-24T07:10:30.106Z,42.80
2017-06-24T07:12:57.573Z,27.73
2017-06-24T07:15:25.457Z,27.23
2017-06-24T07:17:52.930Z,31.87
2017-06-24T07:20:20.445Z,27.87
2017-06-24T07:22:48.355Z,28.90
2017-06-24T07:25:15.824Z,28.50
2017-06-24T07:27:43.313Z,28.67
2017-06-24T07:30:10.981Z,29.90
2017-06-24T07:32:38.453Z,28.80
2017-06-24T07:35:06.317Z,26.90
2017-06-24T07:37:34.276Z,33.37
2017-06-24T07:40:02.715Z,30.90
2017-06-24T07:42:30.184Z,31.33
2017-06-24T07:44:58.174Z,29.27
2017-06-24T07:47:26.040Z,28.80
2017-06-24T07:49:53.913Z,33.93
2017-06-24T07:52:21.410Z,30.10
2017-06-24T07:54:49.996Z,30.97
2017-06-24T07:57:17.464Z,27.67
2017-06-24T07:59:44.973Z,29.47
2017-06-24T08:02:12.447Z,33.37
2017-06-24T08:04:40.470Z,33.07
2017-06-24T08:07:08.229Z,23.60
2017-06-24T08:09:36.109Z,23.47
2017-06-24T08:12:03.972Z,27.43
2017-06-24T08:14:31.848Z,28.57
2017-06-24T08:16:59.324Z,28.63
2017-06-24T08:19:26.796Z,27.87
2017-06-24T08:21:54.294Z,26.60
2017-06-24T08:24:21.761Z,31.03
2017-06-24T08:26:50.601Z,30.73
2017-06-24T08:29:18.241Z,25.03
2017-06-24T08:31:45.740Z,25.97
2017-06-24T08:34:13.227Z,24.73
2017-06-24T08:36:41.121Z,27.00
2017-06-24T08:39:08.589Z,28.77
2017-06-24T08:41:36.053Z,25.67
2017-06-24T08:44:03.801Z,30.40
2017-06-24T08:46:31.268Z,27.30
2017-06-24T08:48:58.742Z,33.03
2017-06-24T08:51:26.332Z,31.63
2017-06-24T08:53:53.816Z,43.43
2017-06-24T08:56:21.300Z,35.53
2017-06-24T08:58:48.877Z,31.47
2017-06-24T09:01:16.349Z,35.63
2017-06-24T09:03:44.227Z,33.80
2017-06-24T09:06:11.736Z,32.50
2017-06-24T09:08:39.220Z,35.00
2017-06-24T09:11:07.126Z,35.83
2017-06-24T09:13:34.949Z,38.77
2017-06-24T09:16:02.817Z,32.83
2017-06-24T09:18:30.282Z,35.43
2017-06-24T09:20:58.177Z,33.07
2017-06-24T09:23:25.649Z,32.40
2017-06-24T09:25:53.123Z,37.03
2017-06-24T09:28:20.818Z,36.10
2017-06-24T09:30:48.681Z,36.20
2017-06-24T09:33:16.548Z,35.43
2017-06-24T09:35:44.066Z,37.07
2017-06-24T09:38:11.544Z,41.30
2017-06-24T09:40:39.424Z,35.77
2017-06-24T09:43:07.580Z,38.33
2017-06-24T09:45:35.448Z,44.00
2017-06-24T09:48:03.312Z,40.97
2017-06-24T09:50:31.224Z,43.10
2017-06-24T09:52:58.717Z,47.07
2017-06-24T09:55:26.196Z,38.50
2017-06-24T09:57:54.190Z,39.73
2017-06-24T10:00:21.718Z,43.03
2017-06-24T10:02:49.202Z,37.30
2017-06-24T10:05:16.742Z,34.90
2017-06-24T10:07:44.246Z,40.80
2017-06-24T10:10:11.721Z,36.77
2017-06-24T10:12:39.501Z,37.30
2017-06-24T10:15:08.185Z,35.30
2017-06-24T10:17:36.062Z,34.43
2017-06-24T10:20:04.130Z,39.67
2017-06-24T10:22:32.002Z,42.83
2017-06-24T10:25:00.125Z,38.87
2017-06-24T10:27:27.657Z,41.83
2017-06-24T10:29:55.167Z,42.20
2017-06-24T10:32:23.053Z,44.60
2017-06-24T10:34:51.121Z,40.30
2017-06-24T10:37:19.007Z,45.13
2017-06-24T10:39:46.502Z,40.33
2017-06-24T10:42:14.038Z,37.80
2017-06-24T10:44:41.516Z,36.70
2017-06-24T10:47:08.998Z,39.20
2017-06-24T10:49:37.427Z,37.60
2017-06-24T10:52:04.933Z,42.67
2017-06-24T10:54:32.840Z,35.07
2017-06-24T10:57:00.371Z,34.70
2017-06-24T10:59:28.237Z,36.93
2017-06-24T11:01:55.720Z,36.80
2017-06-24T11:04:23.484Z,35.47
2017-06-24T11:06:50.966Z,33.93
2017-06-24T11:09:18.470Z,38.13
2017-06-24T11:11:48.008Z,42.63
2017-06-24T11:14:16.037Z,41.83
2017-06-24T11:16:43.534Z,43.50
2017-06-24T11:19:11.048Z,43.60
2017-06-24T11:21:38.618Z,40.80
2017-06-24T11:24:06.095Z,36.40
2017-06-24T11:26:34.473Z,39.93
2017-06-24T11:29:01.989Z,36.43
2017-06-24T11:31:29.465Z,39.33
2017-06-24T11:33:56.975Z,37.43
2017-06-24T11:36:24.580Z,40.90
2017-06-24T11:38:52.138Z,35.10
2017-06-24T11:41:19.620Z,37.43
2017-06-24T11:43:47.134Z,34.67
2017-06-24T11:46:14.657Z,32.97
2017-06-24T11:48:42.133Z,35.90
2017-06-24T11:51:10.770Z,34.93
2017-06-24T11:53:38.308Z,32.00
2017-06-24T11:56:05.796Z,31.37
2017-06-24T11:58:33.280Z,32.30
2017-06-24T12:12:26.349Z,30.37
2017-06-24T12:14:53.822Z,32.17
2017-06-24T12:17:21.309Z,36.67
2017-06-24T12:19:49.205Z,37.37
2017-06-24T12:22:16.750Z,34.80
2017-06-24T12:24:44.906Z,33.20
2017-06-24T12:27:12.394Z,40.20
2017-06-24T12:29:39.861Z,45.23
2017-06-24T12:32:07.672Z,38.33
2017-06-24T12:34:35.632Z,36.47
2017-06-24T12:37:03.104Z,43.73
2017-06-24T12:39:31.069Z,43.37
2017-06-24T12:41:58.543Z,37.70
2017-06-24T12:44:26.410Z,37.67
2017-06-24T12:46:54.592Z,33.87
2017-06-24T12:49:22.066Z,38.40
2017-06-24T12:51:49.552Z,38.80
2017-06-24T12:54:17.163Z,37.40
2017-06-24T12:56:44.636Z,44.30
2017-06-24T12:59:12.341Z,39.67
2017-06-24T13:01:40.268Z,33.63
2017-06-24T13:04:07.769Z,38.50
2017-06-24T13:06:35.652Z,33.00
2017-06-24T13:09:03.550Z,34.23
2017-06-24T13:11:31.053Z,47.10
2017-06-24T13:13:58.543Z,38.53
2017-06-24T13:16:26.079Z,35.80
2017-06-24T13:18:53.950Z,32.40
2017-06-24T13:21:21.759Z,34.20
2017-06-24T13:23:49.264Z,28.47
2017-06-24T13:26:17.397Z,32.27
2017-06-24T13:28:45.711Z,30.77
2017-06-24T13:31:13.221Z,30.80
2017-06-24T13:33:40.714Z,28.10
2017-06-24T13:36:08.192Z,29.30
2017-06-24T13:38:35.975Z,27.53
2017-06-24T13:41:03.459Z,26.00
2017-06-24T13:43:30.957Z,21.70
2017-06-24T13:45:58.584Z,29.90
2017-06-24T13:48:26.064Z,32.37
2017-06-24T13:50:53.937Z,33.77
2017-06-24T13:53:21.458Z,37.10
2017-06-24T13:55:48.964Z,18.90
2017-06-24T13:58:16.458Z,16.63
2017-06-24T14:00:44.144Z,11.07
2017-06-24T14:03:12.016Z,10.40
2017-06-24T14:05:39.481Z,11.37
2017-06-24T14:08:07.264Z,13.07
2017-06-24T14:10:34.740Z,12.87
2017-06-24T14:13:02.235Z,9.00
2017-06-24T14:15:30.036Z,7.50
2017-06-24T14:17:57.524Z,8.60
2017-06-24T14:20:24.996Z,9.03
2017-06-24T14:22:52.499Z,8.97
2017-06-24T14:25:19.962Z,8.17
2017-06-24T14:27:47.464Z,10.00
2017-06-24T14:30:15.148Z,8.13
2017-06-24T14:32:42.620Z,19.77
2017-06-24T14:35:10.111Z,21.10
2017-06-24T14:37:37.615Z,16.70
2017-06-24T14:40:05.089Z,10.80
2017-06-24T14:42:32.572Z,8.70
2017-06-24T14:45:00.397Z,14.70
2017-06-24T14:47:27.882Z,8.53
2017-06-24T14:49:55.345Z,6.03
2017-06-24T14:52:23.264Z,7.80
2017-06-24T14:54:50.851Z,8.17
2017-06-24T14:57:18.339Z,7.37
2017-06-24T14:59:46.131Z,5.80
2017-06-24T15:02:13.611Z,8.23
2017-06-24T15:04:41.088Z,8.70
2017-06-24T15:07:08.728Z,13.53
2017-06-24T15:09:36.228Z,7.37
2017-06-24T15:12:03.725Z,9.53
2017-06-24T15:14:31.310Z,7.57
2017-06-24T15:16:58.789Z,8.30
2017-06-24T15:19:26.285Z,12.73
2017-06-24T15:21:54.292Z,11.03
2017-06-24T15:24:22.112Z,8.63
2017-06-24T15:26:49.597Z,6.33
2017-06-24T15:29:17.406Z,11.73
2017-06-24T15:31:44.882Z,5.50
2017-06-24T15:34:12.370Z,7.60
2017-06-24T15:36:40.149Z,6.83
2017-06-24T15:39:07.642Z,7.03
2017-06-24T15:41:35.122Z,10.10
2017-06-24T15:44:02.732Z,8.70
2017-06-24T15:46:30.200Z,8.10
2017-06-24T15:48:57.673Z,4.83
2017-06-24T15:51:26.309Z,5.40
2017-06-24T15:53:53.773Z,5.57
2017-06-24T15:56:21.249Z,4.10
2017-06-24T15:58:48.968Z,6.13
2017-06-24T16:01:16.471Z,6.60
2017-06-24T16:03:43.945Z,6.70
2017-06-24T16:06:12.377Z,4.77
2017-06-24T16:08:39.857Z,4.93
2017-06-24T16:11:07.337Z,5.90
2017-06-24T16:13:35.037Z,5.93
2017-06-24T16:16:02.544Z,5.23
2017-06-24T16:18:30.045Z,10.57
2017-06-24T16:21:01.891Z,8.23
2017-06-24T16:23:30.270Z,7.33
2017-06-24T16:25:57.857Z,6.77
2017-06-24T16:28:25.348Z,5.30
2017-06-24T16:30:52.840Z,4.07
2017-06-24T16:33:20.619Z,4.90
2017-06-24T16:35:48.109Z,4.80
2017-06-24T16:38:16.580Z,8.57
2017-06-24T16:40:44.730Z,3.97
2017-06-24T16:43:12.581Z,3.80
2017-06-24T16:45:40.380Z,4.50
2017-06-24T16:48:07.883Z,5.13
2017-06-24T16:50:35.346Z,5.80
2017-06-24T16:53:02.837Z,6.03
2017-06-24T16:55:30.580Z,7.67
2017-06-24T16:57:58.082Z,6.50
2017-06-24T17:00:26.030Z,6.03
2017-06-24T17:02:53.533Z,7.33
2017-06-24T17:05:21.042Z,5.60
2017-06-24T17:07:48.548Z,6.50
2017-06-24T17:10:16.049Z,6.37
2017-06-24T17:12:43.534Z,4.77
2017-06-24T17:15:11.405Z,15.47
2017-06-24T17:17:38.988Z,9.10
2017-06-24T17:20:06.469Z,4.80
2017-06-24T17:22:33.943Z,4.33
2017-06-24T17:25:01.693Z,6.80
2017-06-24T17:27:29.163Z,7.53
2017-06-24T17:29:57.233Z,6.30
2017-06-24T17:32:26.085Z,5.20
2017-06-24T17:34:53.575Z,9.30
2017-06-24T17:37:21.942Z,4.77
2017-06-24T17:39:50.611Z,4.63
2017-06-24T17:42:18.081Z,5.73
2017-06-24T17:44:45.854Z,5.57
2017-06-24T17:47:14.229Z,5.77
2017-06-24T17:49:43.469Z,7.13
2017-06-24T17:52:10.966Z,16.70
2017-06-24T17:54:38.500Z,6.07
2017-06-24T17:57:06.359Z,6.93
2017-06-24T17:59:34.820Z,8.27
2017-06-24T18:02:02.527Z,7.60
2017-06-24T18:04:30.053Z,5.60
2017-06-24T18:06:57.537Z,4.40
2017-06-24T18:09:25.645Z,4.60
2017-06-24T18:11:53.900Z,4.93
2017-06-24T18:14:21.386Z,4.77
2017-06-24T18:16:48.877Z,5.10
2017-06-24T18:19:16.744Z,5.43
2017-06-24T18:21:45.126Z,5.43
2017-06-24T18:24:12.904Z,6.97
2017-06-24T18:26:41.036Z,3.73
2017-06-24T18:29:09.018Z,4.70
2017-06-24T18:31:37.019Z,5.57
2017-06-24T18:34:04.517Z,6.27
2017-06-24T18:36:31.996Z,5.57
2017-06-24T18:38:59.873Z,5.33
2017-06-24T18:41:28.242Z,8.57
2017-06-24T18:43:55.759Z,7.20
2017-06-24T18:46:24.427Z,4.90
2017-06-24T18:48:51.894Z,6.63
2017-06-24T18:51:19.991Z,9.67
2017-06-24T18:53:47.811Z,8.73
2017-06-24T18:56:16.197Z,8.47
2017-06-24T18:58:44.291Z,8.97
2017-06-24T19:01:12.077Z,6.70
2017-06-24T19:03:39.975Z,7.33
2017-06-24T19:06:07.470Z,6.80
2017-06-24T19:08:35.852Z,5.27
2017-06-24T19:11:03.336Z,11.23
2017-06-24T19:13:31.448Z,7.07
2017-06-24T19:15:59.298Z,5.20
2017-06-24T19:18:27.903Z,7.97
2017-06-24T19:20:55.413Z,13.10
2017-06-24T19:23:23.579Z,5.83
2017-06-24T19:25:51.080Z,7.47
2017-06-24T19:28:18.981Z,36.07
2017-06-24T19:30:47.191Z,11.67
2017-06-24T19:33:15.656Z,8.30
2017-06-24T19:35:43.395Z,17.73
2017-06-24T19:38:12.402Z,8.93
2017-06-24T19:40:39.965Z,6.20
2017-06-24T19:43:08.344Z,6.53
2017-06-24T19:45:37.616Z,7.20
2017-06-24T19:48:05.098Z,7.03
2017-06-24T19:50:33.614Z,5.97
2017-06-24T19:53:01.411Z,7.23
2017-06-24T19:55:29.321Z,7.43
2017-06-24T19:57:56.780Z,6.20
2017-06-24T20:00:24.285Z,6.17
2017-06-24T20:02:51.787Z,4.90
2017-06-24T20:05:19.270Z,10.80
2017-06-24T20:10:21.339Z,5.60
2017-06-24T20:12:49.796Z,4.63
2017-06-24T20:15:17.305Z,8.50
2017-06-24T20:17:45.510Z,6.77
2017-06-24T20:20:13.434Z,5.80
2017-06-24T20:22:41.232Z,4.70
2017-06-24T20:25:09.128Z,4.97
2017-06-24T20:27:36.904Z,5.40
2017-06-24T20:30:04.408Z,6.23
2017-06-24T20:32:32.297Z,7.07
2017-06-24T20:35:00.064Z,5.20
2017-06-24T20:37:27.530Z,5.63
2017-06-24T20:39:55.058Z,5.30
2017-06-24T20:42:22.941Z,15.83
2017-06-24T20:44:50.401Z,8.40
2017-06-24T20:47:17.890Z,8.27
2017-06-24T20:49:45.391Z,7.10
2017-06-24T20:52:13.278Z,9.47
2017-06-24T20:54:40.781Z,6.80
2017-06-24T20:57:08.289Z,8.00
2017-06-24T20:59:35.763Z,5.83
2017-06-24T21:02:03.243Z,5.30
2017-06-24T21:04:30.996Z,6.30
2017-06-24T21:06:58.763Z,5.67
2017-06-24T21:09:26.224Z,5.77
2017-06-24T21:11:53.927Z,7.37
2017-06-24T21:14:21.896Z,5.30
2017-06-24T21:16:49.409Z,5.60
2017-06-24T21:19:17.107Z,8.67
2017-06-24T21:21:46.306Z,7.27
2017-06-24T21:24:14.171Z,6.70
2017-06-24T21:26:42.343Z,5.80
2017-06-24T21:29:10.836Z,6.80
2017-06-24T21:31:38.311Z,5.00
2017-06-24T21:34:05.823Z,10.30
2017-06-24T21:36:33.304Z,6.23
2017-06-24T21:39:01.093Z,5.80
2017-06-24T21:41:28.800Z,12.90
2017-06-24T21:43:56.281Z,17.30
2017-06-24T21:46:23.740Z,7.27
2017-06-24T21:48:51.236Z,8.20
2017-06-24T21:51:18.692Z,5.13
2017-06-24T21:53:47.159Z,8.20
2017-06-24T21:56:14.861Z,7.40
2017-06-24T21:58:42.519Z,5.43
2017-06-24T22:01:10.407Z,8.17
2017-06-24T22:03:38.557Z,7.50
2017-06-24T22:06:06.039Z,8.77
2017-06-24T22:08:33.898Z,8.60
2017-06-24T22:11:01.559Z,7.60
2017-06-24T22:13:29.012Z,8.13
2017-06-24T22:15:56.552Z,6.40
2017-06-24T22:18:24.691Z,8.90
2017-06-24T22:20:52.146Z,6.10
2017-06-24T22:23:19.597Z,6.53
2017-06-24T22:25:47.273Z,5.73
2017-06-24T22:28:14.726Z,6.43
2017-06-24T22:30:42.171Z,6.90
2017-06-24T22:33:09.634Z,7.20
2017-06-24T22:35:37.084Z,10.23
2017-06-24T22:38:04.519Z,7.17
2017-06-24T22:40:32.296Z,5.67
2017-06-24T22:42:59.736Z,8.70
2017-06-24T22:45:27.171Z,6.73
2017-06-24T22:47:54.640Z,7.70
2017-06-24T22:50:22.092Z,10.83
2017-06-24T22:52:49.531Z,7.00
2017-06-24T22:55:17.000Z,10.97
2017-06-24T22:57:44.442Z,8.67
2017-06-24T23:00:11.882Z,6.90
2017-06-24T23:02:39.732Z,6.83
2017-06-24T23:05:07.569Z,8.63
2017-06-24T23:07:35.013Z,12.40
2017-06-24T23:10:02.483Z,8.00
2017-06-24T23:12:29.923Z,9.60
2017-06-24T23:14:57.363Z,9.80
2017-06-24T23:17:25.145Z,11.53
2017-06-24T23:19:53.455Z,7.17
2017-06-24T23:22:21.295Z,10.23
2017-06-24T23:24:48.768Z,15.50
2017-06-24T23:27:16.210Z,7.30
2017-06-24T23:29:43.647Z,9.80
2017-06-24T23:32:11.106Z,7.60
2017-06-24T23:34:38.575Z,8.57
2017-06-24T23:37:06.025Z,11.63
2017-06-24T23:39:33.467Z,8.57
2017-06-24T23:42:00.911Z,10.47
2017-06-24T23:44:28.355Z,8.80
2017-06-24T23:46:56.138Z,7.03
2017-06-24T23:49:23.582Z,11.43
2017-06-24T23:51:51.019Z,9.20
2017-06-24T23:54:18.811Z,8.23
2017-06-24T23:56:46.260Z,8.10
2017-06-24T23:59:13.699Z,9.03
